Glendale, AZ

10:53 AM MST on October 21, 2014 (GMT -0700)
Peppermill Run | Change Station
CLOSE
Current Station
Personal Weather Station
Location: Peoria, AZ
Elevation: 1150 ft
Nearby Weather Stations

Elev 1150 ft 33.54 °N, 112.19 °W | Updated 5 seconds ago

Partly Cloudy
Partly Cloudy
83.3 °F
Feels Like 82 °F
N
2.0
Wind Variable Wind from NE
Gusts 2.0 mph

Today
High -- | Low -- °F
--% Chance of Precip.
Yesterday
High -- | Low -- °F
Precip. -- in
6:38 AM 5:47 PM
Waning Crescent, 5% visible
Pressure 29.92 in
Visibility 20.0 miles
Clouds Few 18000 ft
Scattered Clouds 22000 ft
Heat Index 82 °F
Dew Point 55 °F
Humidity 38%
Rainfall 0.00 in
Snow Depth Not available.
UV 3 out of 12
Pollen 5.60 out of 12
PM2.5 Moderate
Flu Activity No Activity
METAR KGEU 211655Z 07003KT 20SM FEW180 SCT220 26/12 A2992

More Conditions Fewer Conditions

Pressure 29.92 in
Visibility 20.0 miles
Clouds Few 18000 ft
Scattered Clouds 22000 ft
Heat Index 82 °F
Dew Point 55 °F
Humidity 38%
Rainfall 0.00 in
Snow Depth Not available.
UV 3 out of 12
Pollen 5.60 out of 12
PM2.5 Moderate
Flu Activity No Activity
METAR KGEU 211655Z 07003KT 20SM FEW180 SCT220 26/12 A2992

More Conditions Fewer Conditions

10-Day Weather Forecast

Almanac

Astronomy

Oct. 21, 2014 Rise Set
Actual Time 6:38 AM MST 5:47 PM MST
Civil Twilight 6:12 AM MST 6:13 PM MST
Nautical Twilight 5:43 AM MST 6:42 PM MST
Astronomical Twilight 5:15 AM MST 7:10 PM MST
Moon 4:32 AM MST 4:38 PM MST
Length of Visible Light 12h 00m
Length of Day
11h 09m
Tomorrow will be 1m 56s shorter.
Waning Crescent, 5% of the Moon is Illuminated
Today
Waning Crescent
Oct 23
New
Oct 30
First Quarter
Nov 6
Full
Nov 14
Last Quarter

Today's Extremes

State Highs State Lows

Community

WunderPhotos

Upload Photos

1,763,733 photos uploaded!

Nearby

Air Quality

  Air Quality AQ Index Pollutant
Yesterday Good
OZONE
Yesterday Good
PM10
Current Moderate
PM2.5
Tuesday Good
PM2.5
Tuesday Good
OZONE
Tuesday Good
CO
Wednesday Moderate
OZONE
Wednesday Good
PM10
Wednesday Good
CO
Thursday Good
OZONE
Thursday Good
PM10
Thursday Good
CO

Snow Depth

Station Depth Elevation
Workman Creek 0 in 6900 ft
Baker Butte 1 in 7300 ft
Promontory 0 in 7930 ft
White Horse Lake 0 in 7180 ft
Snowslide Canyon 0 in 9730 ft

Earthquake Activity

City Distance Mag. Time & Date
No recent earthquake activity has been reported nearby.
Minimum magnitude displayed is 2.5.

Coastal Water Temperatures

Place Temperature
No Stations Reporting

Nearby Weather Stations